Time;durP1;ratioP1;P1;durP2;ratioP2;P2;SDS_P1;SDS_P2;PMS_P1;PMS_P2;Temp;Humidity;BMP_temperature;BMP_pressure;BME280_temperature;BME280_humidity;BME280_pressure;Samples;Min_cycle;Max_cycle;Signal;HPM_P1;HPM_P2
2024/03/01 00:01:28;;;;;;;7.18;4.95;;;13.20;68.40;14.80;99939.00;;;;5014558;28;20276;-69
2024/03/01 00:03:56;;;;;;;5.28;3.95;;;13.20;68.30;14.80;99932.00;;;;5018686;28;20311;-68
2024/03/01 00:06:23;;;;;;;5.70;3.63;;;13.20;68.30;14.80;99938.00;;;;5013238;28;20292;-68
2024/03/01 00:08:50;;;;;;;6.15;4.22;;;13.20;68.30;14.80;99923.00;;;;4994403;28;20284;-68
2024/03/01 00:11:17;;;;;;;6.10;4.28;;;13.20;68.20;14.80;99932.00;;;;5002094;28;20228;-68
2024/03/01 00:13:44;;;;;;;6.72;4.78;;;13.20;68.20;14.80;99923.00;;;;5014229;28;20661;-68
2024/03/01 00:16:12;;;;;;;6.35;4.50;;;13.20;68.20;14.80;99928.00;;;;5009648;28;20614;-68
2024/03/01 00:18:40;;;;;;;6.68;4.60;;;13.20;68.20;14.80;99925.00;;;;5012092;28;20196;-69
2024/03/01 00:21:07;;;;;;;6.05;4.10;;;13.10;68.70;14.80;99924.00;;;;5020508;28;20193;-68
2024/03/01 00:23:35;;;;;;;6.03;4.35;;;13.20;68.20;14.80;99926.00;;;;5013752;28;20221;-68
2024/03/01 00:26:02;;;;;;;5.47;4.45;;;13.10;68.10;14.80;99926.00;;;;5012465;28;20674;-69
2024/03/01 00:28:29;;;;;;;6.25;4.57;;;13.10;68.10;14.80;99921.00;;;;5011145;28;20193;-69
2024/03/01 00:30:56;;;;;;;4.28;3.50;;;13.10;68.10;14.80;99922.00;;;;5013698;28;20270;-69
2024/03/01 00:33:24;;;;;;;6.00;4.32;;;13.10;68.10;14.70;99918.00;;;;5013151;28;20225;-69
2024/03/01 00:35:51;;;;;;;6.47;4.50;;;13.10;68.10;14.70;99916.00;;;;5013887;28;20205;-69
2024/03/01 00:38:19;;;;;;;4.57;3.70;;;13.10;68.00;14.70;99922.00;;;;5011948;28;20606;-69
2024/03/01 00:40:46;;;;;;;5.55;4.10;;;13.10;68.00;14.70;99910.00;;;;5013515;28;20199;-69
2024/03/01 00:43:13;;;;;;;6.18;4.72;;;13.10;68.00;14.70;99906.00;;;;5013229;28;20259;-69
2024/03/01 00:45:40;;;;;;;4.45;3.40;;;13.10;68.00;14.70;99904.00;;;;5005636;28;20271;-69
2024/03/01 00:48:10;;;;;;;5.97;3.78;;;13.10;67.90;14.70;99898.00;;;;5002896;28;20208;-69
2024/03/01 00:50:39;;;;;;;6.78;4.35;;;13.10;67.90;14.60;99895.00;;;;5012352;28;20284;-69
2024/03/01 00:53:08;;;;;;;7.63;4.13;;;13.10;67.90;14.60;99898.00;;;;5011680;28;20207;-69
2024/03/01 00:55:36;;;;;;;5.32;3.90;;;13.00;67.80;14.60;99888.00;;;;5002268;28;20192;-69
2024/03/01 00:58:03;;;;;;;5.93;3.75;;;13.00;67.80;14.60;99886.00;;;;5006703;28;20201;-68
2024/03/01 01:00:31;;;;;;;4.43;3.50;;;13.00;67.80;14.60;99889.00;;;;5012276;28;20288;-69
2024/03/01 01:02:58;;;;;;;5.60;4.32;;;13.00;67.80;14.50;99888.00;;;;5012779;28;20225;-69
2024/03/01 01:05:25;;;;;;;4.95;4.15;;;13.00;67.90;14.50;99888.00;;;;5003262;28;20194;-69
2024/03/01 01:07:54;;;;;;;3.92;3.25;;;13.00;67.90;14.50;99880.00;;;;4997242;28;20197;-69
2024/03/01 01:10:21;;;;;;;5.20;3.83;;;12.90;67.80;14.50;99884.00;;;;5012291;28;20220;-69
2024/03/01 01:12:48;;;;;;;5.13;4.05;;;12.90;67.80;14.50;99882.00;;;;5012719;28;20573;-69
2024/03/01 01:15:15;;;;;;;5.85;4.03;;;12.90;67.80;14.40;99872.00;;;;5013055;28;20193;-69
2024/03/01 01:17:44;;;;;;;5.40;3.65;;;12.80;67.80;14.40;99873.00;;;;5011517;28;20616;-69
2024/03/01 01:20:12;;;;;;;6.93;3.55;;;12.80;67.80;14.40;99869.00;;;;5013178;28;20200;-69
2024/03/01 01:22:41;;;;;;;5.00;3.47;;;12.80;67.80;14.40;99878.00;;;;5011733;28;20268;-69
2024/03/01 01:25:10;;;;;;;4.30;3.20;;;12.80;67.80;14.30;99867.00;;;;5012164;28;20277;-69
2024/03/01 01:27:37;;;;;;;5.65;3.53;;;12.80;67.80;14.30;99869.00;;;;5011318;28;20228;-68
2024/03/01 01:30:05;;;;;;;5.50;3.75;;;12.70;67.80;14.30;99871.00;;;;5012996;28;20300;-69
2024/03/01 01:32:32;;;;;;;5.50;3.35;;;12.70;67.90;14.30;99867.00;;;;5012173;28;20232;-69
2024/03/01 01:34:59;;;;;;;4.43;3.40;;;12.70;68.00;14.30;99855.00;;;;5012408;28;20225;-69
2024/03/01 01:37:26;;;;;;;7.78;4.13;;;12.70;68.20;14.30;99856.00;;;;5011486;28;20279;-68
2024/03/01 01:39:54;;;;;;;5.60;3.83;;;12.70;68.20;14.30;99855.00;;;;4993114;28;20194;-69
2024/03/01 01:42:23;;;;;;;4.60;3.13;;;12.70;68.30;14.40;99852.00;;;;5010715;28;20197;-69
2024/03/01 01:44:50;;;;;;;4.45;3.40;;;12.70;68.40;14.40;99849.00;;;;5012208;28;21151;-69
2024/03/01 01:47:18;;;;;;;5.63;4.10;;;12.80;68.50;14.40;99840.00;;;;5012695;28;20224;-70
2024/03/01 01:49:46;;;;;;;4.00;2.83;;;12.80;68.50;14.40;99836.00;;;;5009675;28;20614;-70
2024/03/01 01:52:13;;;;;;;4.95;3.25;;;12.80;68.50;14.50;99838.00;;;;5011785;28;20292;-70
2024/03/01 01:54:42;;;;;;;4.20;3.05;;;12.80;68.50;14.50;99827.00;;;;5012045;28;20189;-69
2024/03/01 01:57:11;;;;;;;4.80;2.88;;;12.90;68.50;14.50;99831.00;;;;5012000;28;20666;-69
2024/03/01 01:59:41;;;;;;;4.60;3.10;;;12.90;68.50;14.50;99831.00;;;;5011002;28;20733;-69
2024/03/01 02:02:09;;;;;;;4.97;3.47;;;12.90;68.50;14.50;99835.00;;;;5011739;28;20228;-69
2024/03/01 02:04:36;;;;;;;4.47;3.50;;;12.90;68.50;14.50;99826.00;;;;5011924;28;20224;-70
2024/03/01 02:07:04;;;;;;;4.78;4.03;;;12.90;68.50;14.60;99823.00;;;;5008555;28;20671;-69
2024/03/01 02:09:31;;;;;;;3.85;3.45;;;13.00;68.50;14.60;99823.00;;;;5011466;28;20204;-69
2024/03/01 02:11:58;;;;;;;3.88;2.42;;;12.90;68.50;14.60;99819.00;;;;5012006;28;20271;-69
2024/03/01 02:14:26;;;;;;;4.22;3.00;;;13.00;68.50;14.70;99809.00;;;;5012031;28;20259;-69
2024/03/01 02:16:54;;;;;;;4.20;3.33;;;13.00;68.60;14.70;99808.00;;;;5012218;28;20269;-69
2024/03/01 02:19:22;;;;;;;4.47;2.80;;;13.00;68.50;14.70;99800.00;;;;5011438;28;20241;-70
2024/03/01 02:22:01;;;;;;;3.38;2.95;;;13.00;68.40;14.60;99799.00;;;;5011811;28;20272;-70
2024/03/01 02:24:29;;;;;;;4.47;3.13;;;13.10;68.50;14.70;99788.00;;;;4992485;28;20691;-70
2024/03/01 02:26:57;;;;;;;4.75;3.20;;;13.10;68.40;14.70;99791.00;;;;5011033;28;20286;-70
2024/03/01 02:29:24;;;;;;;3.53;2.70;;;13.10;68.30;14.70;99786.00;;;;5010189;28;20197;-69
2024/03/01 02:31:51;;;;;;;4.68;3.30;;;13.10;68.30;14.80;99786.00;;;;5011453;28;20678;-69
2024/03/01 02:34:19;;;;;;;4.03;3.22;;;13.10;68.30;14.70;99775.00;;;;5011771;28;20291;-70
2024/03/01 02:36:46;;;;;;;4.22;3.00;;;13.10;68.20;14.80;99776.00;;;;5011694;28;20600;-69
2024/03/01 02:39:16;;;;;;;4.13;3.20;;;13.20;68.20;14.80;99771.00;;;;5005022;28;20294;-70
2024/03/01 02:41:45;;;;;;;4.32;2.95;;;13.20;68.20;14.80;99763.00;;;;4992231;28;20197;-69
2024/03/01 02:44:13;;;;;;;4.30;3.03;;;13.20;68.20;14.80;99758.00;;;;5010877;28;20319;-70
2024/03/01 02:46:40;;;;;;;5.18;3.50;;;13.20;68.10;14.80;99763.00;;;;5010103;28;20216;-69
2024/03/01 02:49:07;;;;;;;4.70;3.05;;;13.20;68.10;14.80;99757.00;;;;5006264;28;20288;-69
2024/03/01 02:51:34;;;;;;;4.53;3.08;;;13.20;68.00;14.80;99756.00;;;;5001173;28;20202;-70
2024/03/01 02:54:02;;;;;;;4.88;3.22;;;13.20;67.90;14.80;99759.00;;;;5001498;28;20280;-70
2024/03/01 02:56:29;;;;;;;4.68;3.55;;;13.20;67.90;14.80;99763.00;;;;4999751;28;20719;-70
2024/03/01 02:58:57;;;;;;;5.18;3.60;;;13.20;67.80;14.80;99759.00;;;;4998635;28;20288;-70
2024/03/01 03:01:24;;;;;;;4.45;3.47;;;13.30;67.90;14.80;99756.00;;;;5000274;28;20276;-70
2024/03/01 03:03:52;;;;;;;6.35;3.65;;;13.30;67.80;14.90;99760.00;;;;5003850;28;20315;-70
2024/03/01 03:06:19;;;;;;;4.43;3.22;;;13.30;67.80;14.80;99756.00;;;;5006734;28;20530;-70
2024/03/01 03:08:46;;;;;;;4.63;3.47;;;13.30;67.80;14.80;99754.00;;;;5003233;28;20276;-70
2024/03/01 03:11:13;;;;;;;5.00;3.92;;;13.30;67.80;14.80;99754.00;;;;5000934;28;20280;-70
2024/03/01 03:13:40;;;;;;;5.93;3.63;;;13.30;67.70;14.80;99747.00;;;;5014055;28;20201;-70
2024/03/01 03:16:09;;;;;;;4.95;3.60;;;13.30;67.70;14.80;99758.00;;;;5014653;28;20224;-70
2024/03/01 03:18:37;;;;;;;6.32;4.20;;;13.30;67.70;14.80;99755.00;;;;5006274;28;20203;-70
2024/03/01 03:21:05;;;;;;;4.78;3.88;;;13.20;67.70;14.80;99766.00;;;;5009023;28;20291;-70
2024/03/01 03:23:32;;;;;;;5.85;3.83;;;13.20;67.80;14.80;99763.00;;;;5001106;28;20228;-70
2024/03/01 03:25:59;;;;;;;5.00;3.55;;;13.20;68.50;14.80;99766.00;;;;5004584;28;20644;-70
2024/03/01 03:28:27;;;;;;;4.65;3.30;;;13.20;67.80;14.80;99772.00;;;;5006723;28;20285;-70
2024/03/01 03:30:54;;;;;;;5.13;3.38;;;13.20;67.80;14.80;99773.00;;;;5005507;28;20281;-70
2024/03/01 03:33:22;;;;;;;4.00;3.17;;;13.20;67.90;14.80;99777.00;;;;5001117;28;20281;-70
2024/03/01 03:35:49;;;;;;;4.38;3.10;;;13.20;67.90;14.80;99786.00;;;;5004176;28;20281;-70
2024/03/01 03:38:16;;;;;;;4.40;3.63;;;13.20;68.00;14.80;99806.00;;;;5003560;28;20586;-70
2024/03/01 03:40:44;;;;;;;4.57;3.72;;;13.20;68.00;14.80;99798.00;;;;5002028;28;20202;-70
2024/03/01 03:43:11;;;;;;;5.50;4.15;;;13.20;68.00;14.80;99819.00;;;;5001839;28;20244;-70
2024/03/01 03:45:39;;;;;;;4.75;3.10;;;13.20;68.00;14.70;99828.00;;;;5001312;28;20293;-70
2024/03/01 03:48:07;;;;;;;4.10;2.65;;;13.20;68.00;14.70;99845.00;;;;5001775;28;20289;-69
2024/03/01 03:50:35;;;;;;;4.82;1.83;;;13.20;68.80;14.70;99845.00;;;;5000641;28;20284;-70
2024/03/01 03:53:02;;;;;;;1.15;1.02;;;13.10;68.00;14.60;99855.00;;;;5001009;28;20652;-69
2024/03/01 03:55:29;;;;;;;1.00;0.80;;;13.10;67.80;14.50;99856.00;;;;5001697;28;20678;-70
2024/03/01 03:57:56;;;;;;;0.93;0.57;;;13.00;67.50;14.50;99860.00;;;;5000412;28;20280;-71
2024/03/01 04:00:24;;;;;;;1.00;0.30;;;13.00;67.40;14.40;99864.00;;;;5001075;28;20277;-70
2024/03/01 04:02:51;;;;;;;0.82;0.30;;;12.90;67.20;14.30;99868.00;;;;4999613;28;20725;-70
2024/03/01 04:05:18;;;;;;;0.60;0.50;;;12.90;67.00;14.30;99871.00;;;;5005235;28;20304;-70
2024/03/01 04:07:47;;;;;;;0.52;0.40;;;12.80;67.00;14.20;99870.00;;;;5014227;28;20297;-70
2024/03/01 04:10:14;;;;;;;0.95;0.50;;;12.70;66.90;14.10;99859.00;;;;5014278;28;20193;-70
2024/03/01 04:12:42;;;;;;;0.80;0.32;;;12.70;67.00;14.10;99865.00;;;;5012900;28;20281;-71
2024/03/01 04:15:09;;;;;;;0.85;0.40;;;12.60;67.00;14.00;99877.00;;;;5007650;28;20285;-70
2024/03/01 04:17:37;;;;;;;1.65;0.32;;;12.50;66.90;13.90;99880.00;;;;5001212;28;20280;-70
2024/03/01 04:20:05;;;;;;;0.30;0.20;;;12.40;66.90;13.90;99879.00;;;;5013993;28;20287;-70
2024/03/01 04:22:33;;;;;;;0.52;0.35;;;12.40;67.10;13.80;99887.00;;;;5013552;28;20689;-70
2024/03/01 04:25:02;;;;;;;0.50;0.30;;;12.30;67.10;13.80;99883.00;;;;5012244;28;20279;-70
2024/03/01 04:27:30;;;;;;;0.82;0.43;;;12.30;67.20;13.80;99899.00;;;;5014086;28;20669;-70
2024/03/01 04:29:59;;;;;;;1.60;0.30;;;12.20;67.20;13.70;99893.00;;;;5008072;28;20205;-70
2024/03/01 04:32:26;;;;;;;0.52;0.20;;;12.10;67.20;13.70;99902.00;;;;4995182;28;20190;-70
2024/03/01 04:34:54;;;;;;;0.73;0.30;;;12.10;67.30;13.60;99899.00;;;;5005637;28;20295;-70
2024/03/01 04:37:21;;;;;;;0.40;0.10;;;12.10;67.40;13.60;99909.00;;;;5001821;28;20221;-70
2024/03/01 04:39:48;;;;;;;1.55;0.47;;;12.00;67.30;13.50;99911.00;;;;5004259;28;20518;-69
2024/03/01 04:42:17;;;;;;;0.40;0.20;;;12.00;67.40;13.50;99915.00;;;;5011145;28;20285;-70
2024/03/01 04:44:45;;;;;;;1.17;0.45;;;11.90;68.10;13.50;99923.00;;;;5006052;28;20217;-70
2024/03/01 04:47:12;;;;;;;1.27;0.40;;;11.90;67.50;13.50;99934.00;;;;5013499;28;20197;-70
2024/03/01 04:49:43;;;;;;;1.45;0.30;;;11.90;67.50;13.40;99936.00;;;;5013284;28;20272;-70
2024/03/01 04:52:11;;;;;;;1.52;0.28;;;11.80;67.40;13.40;99945.00;;;;5012924;28;20292;-69
2024/03/01 04:54:38;;;;;;;1.30;0.32;;;11.80;67.40;13.30;99940.00;;;;5012058;28;20251;-70
2024/03/01 04:57:07;;;;;;;0.73;0.20;;;11.80;67.40;13.30;99952.00;;;;5013211;28;20806;-69
2024/03/01 04:59:38;;;;;;;1.30;0.30;;;11.70;67.40;13.30;99947.00;;;;5011568;28;20794;-69
2024/03/01 05:02:06;;;;;;;2.10;0.50;;;11.70;68.20;13.30;99950.00;;;;5013303;28;20639;-69
2024/03/01 05:04:34;;;;;;;1.80;0.47;;;11.70;67.60;13.20;99949.00;;;;5011640;28;20739;-68
2024/03/01 05:07:02;;;;;;;0.50;0.20;;;11.60;67.50;13.20;99953.00;;;;5011990;28;20208;-69
2024/03/01 05:09:29;;;;;;;1.23;0.20;;;11.60;67.60;13.20;99958.00;;;;5013092;28;20185;-69
2024/03/01 05:11:57;;;;;;;1.02;0.30;;;11.60;67.70;13.20;99952.00;;;;5012668;28;20291;-68
2024/03/01 05:14:24;;;;;;;1.70;0.70;;;11.60;67.70;13.20;99949.00;;;;5012142;28;20621;-69
2024/03/01 05:16:52;;;;;;;3.25;0.52;;;11.60;67.80;13.20;99960.00;;;;5012391;28;20300;-69
2024/03/01 05:19:19;;;;;;;0.95;0.30;;;11.50;67.80;13.20;99963.00;;;;5012937;28;20204;-69
2024/03/01 05:21:47;;;;;;;0.57;0.40;;;11.50;67.70;13.10;99966.00;;;;4999078;28;20284;-69
2024/03/01 05:24:14;;;;;;;0.63;0.40;;;11.50;67.80;13.10;99968.00;;;;5010917;28;20228;-69
2024/03/01 05:26:42;;;;;;;7.03;0.82;;;11.50;67.80;13.10;99969.00;;;;5012649;28;20320;-69
2024/03/01 05:29:09;;;;;;;1.95;0.40;;;11.50;67.90;13.10;99971.00;;;;5012750;28;20280;-69
2024/03/01 05:31:48;;;;;;;0.88;0.32;;;11.50;67.90;13.00;99976.00;;;;5012067;28;20651;-69
2024/03/01 05:34:16;;;;;;;1.20;0.60;;;11.50;67.90;13.10;99975.00;;;;5003311;28;20208;-69
2024/03/01 05:36:44;;;;;;;2.90;0.38;;;11.40;67.80;13.10;99984.00;;;;4992887;28;20285;-69
2024/03/01 05:39:18;;;;;;;0.77;0.20;;;11.40;67.80;13.10;99994.00;;;;5011148;28;20280;-69
2024/03/01 05:41:45;;;;;;;2.75;0.73;;;11.40;67.90;13.10;99997.00;;;;5011196;28;20717;-69
2024/03/01 05:44:13;;;;;;;2.08;1.00;;;11.40;68.00;13.10;99997.00;;;;5002840;28;20220;-69
2024/03/01 05:46:41;;;;;;;3.13;0.47;;;11.40;68.00;13.10;99997.00;;;;4998767;28;20562;-69
2024/03/01 05:49:10;;;;;;;1.15;0.80;;;11.40;68.00;13.00;100013.00;;;;5006907;28;20197;-69
2024/03/01 05:51:39;;;;;;;1.40;0.47;;;11.40;67.90;13.00;100011.00;;;;5011633;28;20208;-69
2024/03/01 05:54:06;;;;;;;0.60;0.50;;;11.40;68.10;13.00;100007.00;;;;5009933;28;20223;-69
2024/03/01 05:56:33;;;;;;;1.42;0.40;;;11.40;67.90;13.10;100010.00;;;;5011994;28;20205;-70
2024/03/01 05:59:02;;;;;;;0.85;0.50;;;11.30;67.90;13.10;100005.00;;;;5011950;28;20193;-70
2024/03/01 06:01:29;;;;;;;3.20;0.80;;;11.40;67.90;13.00;100017.00;;;;5008785;28;20284;-70
2024/03/01 06:03:56;;;;;;;2.30;1.00;;;11.40;67.90;13.00;100011.00;;;;5009816;28;20220;-70
2024/03/01 06:06:23;;;;;;;1.00;0.75;;;11.30;67.80;13.00;100008.00;;;;5010521;28;20193;-70
2024/03/01 06:08:52;;;;;;;1.55;1.00;;;11.30;67.60;12.90;100021.00;;;;5011845;28;20276;-70
2024/03/01 06:11:19;;;;;;;1.13;0.70;;;11.30;67.50;12.90;100027.00;;;;5007235;28;20630;-70
2024/03/01 06:13:46;;;;;;;3.53;1.00;;;11.20;67.50;12.80;100023.00;;;;5011257;28;20275;-70
2024/03/01 06:16:13;;;;;;;2.10;1.02;;;11.20;67.40;12.80;100027.00;;;;5011470;28;20279;-70
2024/03/01 06:18:40;;;;;;;2.22;1.17;;;11.20;67.40;12.80;100024.00;;;;5011952;28;20626;-70
2024/03/01 06:21:08;;;;;;;1.83;1.05;;;11.10;67.30;12.70;100032.00;;;;5009739;28;20201;-70
2024/03/01 06:23:35;;;;;;;6.82;1.55;;;11.10;67.40;12.70;100028.00;;;;5010255;28;20288;-70
2024/03/01 06:26:04;;;;;;;2.65;1.38;;;11.00;67.30;12.60;100047.00;;;;5006136;28;20220;-70
2024/03/01 06:28:31;;;;;;;1.30;1.10;;;11.00;67.30;12.60;100042.00;;;;5011444;28;20287;-70
2024/03/01 06:30:58;;;;;;;2.83;1.50;;;10.90;67.40;12.60;100043.00;;;;5010277;28;20193;-70
2024/03/01 06:33:26;;;;;;;3.35;1.45;;;10.90;67.50;12.60;100047.00;;;;5009001;28;20197;-70
2024/03/01 06:35:54;;;;;;;3.08;1.42;;;10.90;67.70;12.60;100059.00;;;;5009485;28;20708;-70
2024/03/01 06:38:21;;;;;;;3.53;1.20;;;10.80;67.70;12.50;100059.00;;;;5011578;28;20225;-70
2024/03/01 06:40:48;;;;;;;2.25;1.27;;;10.80;67.80;12.60;100059.00;;;;5010214;28;20275;-70
2024/03/01 06:43:16;;;;;;;2.28;1.05;;;10.80;67.90;12.50;100062.00;;;;5009842;28;20287;-70
2024/03/01 06:45:43;;;;;;;1.40;0.90;;;10.80;67.80;12.50;100059.00;;;;5000601;28;20223;-70
2024/03/01 06:48:12;;;;;;;2.88;1.20;;;10.80;67.80;12.40;100059.00;;;;5011915;28;20292;-70
2024/03/01 06:50:39;;;;;;;1.73;0.93;;;10.80;67.80;12.40;100069.00;;;;5002335;28;20280;-70
2024/03/01 06:53:06;;;;;;;2.33;0.98;;;10.70;67.60;12.40;100073.00;;;;5006928;28;20753;-70
2024/03/01 06:55:33;;;;;;;1.30;0.77;;;10.70;67.50;12.40;100070.00;;;;5007544;28;20289;-70
2024/03/01 06:58:00;;;;;;;5.13;1.15;;;10.70;67.50;12.30;100076.00;;;;4995798;28;20232;-70
2024/03/01 07:00:30;;;;;;;3.03;0.93;;;10.60;67.50;12.30;100087.00;;;;5010939;28;20734;-70
2024/03/01 07:02:58;;;;;;;1.90;1.17;;;10.60;67.50;12.30;100085.00;;;;5008662;28;20685;-69
2024/03/01 07:05:25;;;;;;;2.13;1.00;;;10.60;67.50;12.20;100084.00;;;;5008065;28;20220;-70
2024/03/01 07:07:52;;;;;;;2.58;1.05;;;10.60;67.50;12.20;100083.00;;;;5006313;28;20288;-71
2024/03/01 07:10:19;;;;;;;3.58;1.15;;;10.60;67.50;12.20;100089.00;;;;5010442;28;20240;-71
2024/03/01 07:12:46;;;;;;;2.83;1.08;;;10.50;67.50;12.20;100090.00;;;;5008845;28;20280;-70
2024/03/01 07:15:16;;;;;;;4.68;1.10;;;10.50;67.60;12.10;100089.00;;;;5009984;28;20288;-70
2024/03/01 07:17:44;;;;;;;2.92;1.20;;;10.50;67.60;12.10;100087.00;;;;5010982;28;20244;-70
2024/03/01 07:20:12;;;;;;;2.95;1.13;;;10.40;67.60;12.10;100078.00;;;;5011023;28;20279;-70
2024/03/01 07:22:39;;;;;;;2.22;0.98;;;10.40;67.70;12.10;100082.00;;;;5011369;28;20717;-70
2024/03/01 07:25:07;;;;;;;2.30;1.02;;;10.40;67.80;12.10;100073.00;;;;5010773;28;20275;-70
2024/03/01 07:27:35;;;;;;;3.30;1.27;;;10.40;68.50;12.00;100064.00;;;;5011674;28;20351;-70
2024/03/01 07:30:04;;;;;;;1.38;1.23;;;10.40;67.80;12.00;100068.00;;;;5011631;28;20204;-70
2024/03/01 07:32:32;;;;;;;3.00;1.30;;;10.40;68.00;12.00;100058.00;;;;5011673;28;20264;-71
2024/03/01 07:35:00;;;;;;;2.25;1.50;;;10.30;68.00;12.00;100074.00;;;;5010950;28;20196;-71
2024/03/01 07:37:29;;;;;;;2.65;1.77;;;10.30;68.10;12.00;100073.00;;;;5011454;28;20231;-70
2024/03/01 07:39:56;;;;;;;2.50;1.40;;;10.30;68.10;12.00;100069.00;;;;5011346;28;20201;-71
2024/03/01 07:42:24;;;;;;;2.10;1.75;;;10.30;68.20;12.00;100069.00;;;;5011539;28;20562;-71
2024/03/01 07:44:51;;;;;;;2.88;1.60;;;10.30;68.30;12.00;100078.00;;;;5010824;28;20221;-70
2024/03/01 07:47:18;;;;;;;4.57;2.10;;;10.30;68.30;12.00;100078.00;;;;5012440;28;20312;-70
2024/03/01 07:49:49;;;;;;;3.55;2.63;;;10.30;68.40;12.00;100077.00;;;;5014973;28;20247;-70
2024/03/01 07:52:17;;;;;;;3.33;2.53;;;10.30;68.40;12.00;100085.00;;;;5014920;28;20296;-70
2024/03/01 07:54:45;;;;;;;5.40;2.78;;;10.30;68.50;12.00;100084.00;;;;5014219;28;20280;-70
2024/03/01 07:57:12;;;;;;;4.63;3.33;;;10.40;68.50;12.00;100092.00;;;;5014984;28;20299;-70
2024/03/01 07:59:39;;;;;;;6.55;3.33;;;10.30;68.60;12.00;100084.00;;;;5014692;28;20239;-70
2024/03/01 08:02:09;;;;;;;5.22;3.47;;;10.40;68.70;12.00;100085.00;;;;5014650;28;20247;-70
2024/03/01 08:04:37;;;;;;;4.72;3.28;;;10.40;68.70;12.00;100086.00;;;;5013902;28;20292;-70
2024/03/01 08:07:06;;;;;;;4.72;3.47;;;10.40;68.70;12.10;100086.00;;;;5014405;28;20299;-70
2024/03/01 08:09:40;;;;;;;4.10;3.20;;;10.40;68.80;12.10;100082.00;;;;5014757;28;20204;-70
2024/03/01 08:12:11;;;;;;;4.10;3.17;;;10.40;68.80;12.10;100085.00;;;;5014244;28;20225;-70
2024/03/01 08:14:38;;;;;;;7.05;3.72;;;10.50;68.90;12.20;100086.00;;;;5013848;28;20193;-70
2024/03/01 08:17:08;;;;;;;8.02;4.93;;;10.50;68.90;12.20;100078.00;;;;5014226;28;20766;-71
2024/03/01 08:19:37;;;;;;;6.60;4.30;;;10.50;68.80;12.20;100082.00;;;;5014120;28;20855;-70
2024/03/01 08:22:09;;;;;;;5.57;3.75;;;10.50;68.80;12.20;100080.00;;;;5014475;28;20208;-71
2024/03/01 08:24:38;;;;;;;5.47;4.15;;;10.60;69.00;12.30;100086.00;;;;5014121;28;20193;-70
2024/03/01 08:27:08;;;;;;;6.78;4.40;;;10.60;69.00;12.40;100079.00;;;;5014299;28;20208;-71
2024/03/01 08:29:36;;;;;;;7.30;4.53;;;10.70;69.10;12.40;100090.00;;;;5013936;28;20200;-70
2024/03/01 08:32:06;;;;;;;7.03;5.13;;;10.70;69.00;12.40;100095.00;;;;5013756;28;20300;-70
2024/03/01 08:34:45;;;;;;;7.45;5.43;;;10.70;68.90;12.40;100097.00;;;;5013590;28;20186;-70
2024/03/01 08:37:23;;;;;;;7.13;5.22;;;10.80;68.90;12.40;100096.00;;;;5013741;28;20261;-70
2024/03/01 08:39:54;;;;;;;6.93;4.78;;;10.80;68.80;12.50;100114.00;;;;5014110;28;20640;-71
2024/03/01 08:42:21;;;;;;;7.07;5.35;;;10.90;68.80;12.60;100114.00;;;;5014013;28;20574;-70
2024/03/01 08:44:59;;;;;;;7.75;5.75;;;10.90;68.70;12.50;100110.00;;;;5014120;28;20203;-70
2024/03/01 08:47:31;;;;;;;6.90;5.60;;;11.00;68.80;12.60;100104.00;;;;5013861;28;20195;-70
2024/03/01 08:50:37;;;;;;;7.70;5.15;;;11.00;68.70;12.60;100106.00;;;;5013916;28;20232;-70
2024/03/01 08:53:59;;;;;;;6.43;5.18;;;11.00;69.30;12.70;100092.00;;;;5014040;28;20306;-70
2024/03/01 08:56:39;;;;;;;7.82;5.05;;;11.00;68.60;12.70;100096.00;;;;4984475;28;20206;-70
2024/03/01 08:59:44;;;;;;;7.90;5.50;;;11.10;68.50;12.70;100102.00;;;;4994010;28;20288;-70
2024/03/01 09:02:46;;;;;;;7.30;5.45;;;11.20;68.40;12.80;100112.00;;;;5011633;28;20196;-71
2024/03/01 09:05:15;;;;;;;8.10;4.85;;;11.20;68.30;12.90;100112.00;;;;5012907;28;20319;-70
2024/03/01 09:07:44;;;;;;;5.93;4.45;;;11.30;68.30;13.00;100117.00;;;;5013681;28;20220;-70
2024/03/01 09:10:18;;;;;;;5.47;4.43;;;11.30;68.30;13.00;100114.00;;;;5013721;28;20645;-70
2024/03/01 09:12:46;;;;;;;7.80;5.00;;;11.30;68.10;13.10;100112.00;;;;5013454;28;20200;-71
2024/03/01 09:15:19;;;;;;;7.55;4.07;;;11.40;68.10;13.10;100104.00;;;;5013255;28;20208;-70
2024/03/01 09:17:46;;;;;;;5.60;3.47;;;11.50;68.10;13.20;100088.00;;;;5012504;28;20662;-71
2024/03/01 09:20:31;;;;;;;5.18;3.72;;;11.50;68.00;13.20;100095.00;;;;5013233;28;20197;-70
2024/03/01 09:22:57;;;;;;;6.57;4.35;;;11.60;67.80;13.30;100093.00;;;;5013256;28;20201;-70
2024/03/01 09:26:02;;;;;;;6.05;3.92;;;11.60;67.70;13.20;100106.00;;;;5012941;28;20220;-71
2024/03/01 09:28:30;;;;;;;5.05;3.75;;;11.60;67.30;13.30;100100.00;;;;5012337;28;20207;-71
2024/03/01 09:30:58;;;;;;;6.32;3.90;;;11.70;67.50;13.40;100093.00;;;;5012918;28;20192;-70
2024/03/01 09:33:25;;;;;;;5.80;3.75;;;11.70;67.30;13.40;100093.00;;;;5013162;28;20283;-70
2024/03/01 09:35:53;;;;;;;4.53;3.17;;;11.80;67.50;13.50;100080.00;;;;5013090;28;20579;-70
2024/03/01 09:38:22;;;;;;;5.32;3.38;;;11.80;67.50;13.50;100086.00;;;;5013061;28;20315;-70
2024/03/01 09:41:43;;;;;;;4.00;2.92;;;11.90;67.50;13.50;100084.00;;;;5011821;28;20193;-70
2024/03/01 09:44:26;;;;;;;4.93;3.17;;;11.90;67.10;13.60;100075.00;;;;4993327;28;20284;-69
2024/03/01 09:47:13;;;;;;;5.18;2.83;;;12.00;67.20;13.60;100075.00;;;;5007540;28;20729;-70
2024/03/01 09:50:08;;;;;;;3.75;2.70;;;12.00;67.20;13.60;100079.00;;;;5010910;28;20276;-71
2024/03/01 09:52:50;;;;;;;3.63;2.88;;;12.10;67.30;13.80;100073.00;;;;5011853;28;20193;-70
2024/03/01 09:55:33;;;;;;;6.85;3.35;;;12.20;67.30;13.80;100076.00;;;;5011938;28;20279;-71
2024/03/01 09:58:11;;;;;;;7.15;3.83;;;12.20;67.20;13.90;100073.00;;;;5007951;28;20296;-70
2024/03/01 10:00:52;;;;;;;4.95;2.90;;;12.30;67.10;14.00;100087.00;;;;5010442;28;20228;-71
2024/03/01 10:03:40;;;;;;;6.10;3.50;;;12.40;67.10;14.00;100082.00;;;;5011517;28;20217;-70
2024/03/01 10:06:34;;;;;;;6.85;2.63;;;12.50;66.90;14.00;100077.00;;;;5010356;28;20712;-70
2024/03/01 10:09:11;;;;;;;6.13;2.78;;;12.50;66.80;14.20;100080.00;;;;4996376;28;20201;-71
2024/03/01 10:11:58;;;;;;;7.53;3.05;;;12.60;66.80;14.30;100083.00;;;;5005205;28;20681;-71
2024/03/01 10:14:42;;;;;;;3.92;2.60;;;12.70;66.90;14.40;100076.00;;;;5007050;28;20255;-71
2024/03/01 10:17:26;;;;;;;3.55;2.53;;;12.70;66.90;14.50;100067.00;;;;5003270;28;20229;-70
2024/03/01 10:20:15;;;;;;;5.15;2.40;;;12.80;66.80;14.60;100059.00;;;;5011225;28;20289;-71
2024/03/01 10:23:05;;;;;;;5.45;2.60;;;12.90;66.70;14.70;100059.00;;;;5005117;28;20549;-71
2024/03/01 10:25:51;;;;;;;4.95;2.42;;;13.00;66.60;14.70;100046.00;;;;5012056;28;20679;-71
2024/03/01 10:28:50;;;;;;;3.45;2.25;;;13.10;65.80;14.80;100045.00;;;;5006605;28;20279;-71
2024/03/01 10:31:35;;;;;;;3.63;2.38;;;13.20;65.20;14.90;100051.00;;;;5012224;28;20279;-71
2024/03/01 10:34:16;;;;;;;7.25;2.17;;;13.20;65.80;14.90;100048.00;;;;5003481;28;20643;-71
2024/03/01 10:36:46;;;;;;;4.85;2.58;;;13.30;65.60;15.00;100044.00;;;;5001521;28;20299;-72
2024/03/01 10:39:18;;;;;;;2.83;2.20;;;13.30;65.70;15.10;100044.00;;;;5010883;28;20212;-71
2024/03/01 10:42:09;;;;;;;2.85;2.03;;;13.40;65.50;15.10;100032.00;;;;5002864;28;20197;-71
2024/03/01 10:44:44;;;;;;;11.25;2.50;;;13.50;65.10;15.20;100019.00;;;;5011028;28;20276;-70
2024/03/01 10:47:22;;;;;;;6.55;2.47;;;13.60;65.50;15.40;100027.00;;;;4997112;28;20698;-71
2024/03/01 10:50:11;;;;;;;3.85;2.45;;;13.70;65.40;15.40;100006.00;;;;5011496;28;20559;-71
2024/03/01 10:52:42;;;;;;;6.10;3.22;;;13.80;64.60;15.50;100007.00;;;;5010963;28;20502;-71
2024/03/01 10:55:18;;;;;;;3.83;2.90;;;13.80;64.30;15.50;100009.00;;;;5009172;28;20201;-71
2024/03/01 10:57:56;;;;;;;4.68;2.72;;;13.90;64.20;15.50;100009.00;;;;5000762;28;20201;-70
2024/03/01 11:00:28;;;;;;;4.70;3.38;;;13.90;64.30;15.50;100003.00;;;;5010903;28;20888;-70
2024/03/01 11:03:13;;;;;;;3.78;2.70;;;14.00;63.80;15.50;99993.00;;;;5010809;28;20205;-70
2024/03/01 11:06:04;;;;;;;3.42;3.13;;;14.00;63.70;15.50;99991.00;;;;5012490;28;20284;-71